TimeCEST,TemperatureF,Dew PointF,Humidity,Sea Level PressureIn,VisibilityMPH,Wind Direction,Wind SpeedMPH,Gust SpeedMPH,PrecipitationIn,Events,Conditions,WindDirDegrees,DateUTC
12:25 AM,66.2,57.2,73,30.01,-9999.0,NE,9.2,-,N/A,,Clear,50,2013-08-25 22:25:00
12:55 AM,64.4,57.2,77,30.01,-9999.0,NE,10.4,-,N/A,,Clear,50,2013-08-25 22:55:00
1:25 AM,64.4,55.4,73,30.01,-9999.0,ENE,11.5,-,N/A,,Clear,60,2013-08-25 23:25:00
1:55 AM,64.4,53.6,68,30.01,-9999.0,ENE,12.7,-,N/A,,Clear,60,2013-08-25 23:55:00
2:00 AM,64,54,61,30.02,28,ENE,13.4,,,,Partly Cloudy,60,2013-08-26 00:00:00
2:25 AM,62.6,53.6,72,30.01,-9999.0,ENE,10.4,-,N/A,,Clear,60,2013-08-26 00:25:00
2:55 AM,62.6,53.6,72,30.01,-9999.0,NE,9.2,-,N/A,,Clear,50,2013-08-26 00:55:00
3:25 AM,62.6,53.6,72,30.01,-9999.0,NE,9.2,-,N/A,,Clear,50,2013-08-26 01:25:00
3:55 AM,60.8,53.6,77,30.01,-9999.0,NE,9.2,-,N/A,,Clear,50,2013-08-26 01:55:00
4:25 AM,60.8,53.6,77,30.01,-9999.0,NE,8.1,-,N/A,,Clear,50,2013-08-26 02:25:00
4:55 AM,60.8,53.6,77,30.01,-9999.0,NE,10.4,-,N/A,,Clear,50,2013-08-26 02:55:00
5:25 AM,59.0,53.6,82,30.01,-9999.0,NE,9.2,-,N/A,,Clear,50,2013-08-26 03:25:00
5:55 AM,59.0,53.6,82,30.01,-9999.0,NE,9.2,-,N/A,,Clear,50,2013-08-26 03:55:00
6:25 AM,59.0,53.6,82,30.04,-9999.0,NE,9.2,-,N/A,,Clear,50,2013-08-26 04:25:00
6:55 AM,59.0,53.6,82,30.04,-9999.0,NE,10.4,-,N/A,,Clear,50,2013-08-26 04:55:00
7:25 AM,60.8,53.6,77,30.04,-9999.0,NE,10.4,-,N/A,,Clear,50,2013-08-26 05:25:00
7:55 AM,60.8,53.6,77,30.04,-9999.0,NE,10.4,-,N/A,,Clear,50,2013-08-26 05:55:00
8:25 AM,62.6,53.6,72,30.04,-9999.0,ENE,11.5,-,N/A,,Clear,60,2013-08-26 06:25:00
8:55 AM,64.4,55.4,73,30.06,-9999.0,NE,11.5,-,N/A,,Clear,50,2013-08-26 06:55:00
9:25 AM,64.4,55.4,73,30.06,-9999.0,NE,12.7,-,N/A,,Clear,50,2013-08-26 07:25:00
9:55 AM,66.2,55.4,68,30.06,-9999.0,NE,12.7,-,N/A,,Clear,40,2013-08-26 07:55:00
10:25 AM,66.2,55.4,68,30.06,-9999.0,NE,10.4,-,N/A,,Clear,40,2013-08-26 08:25:00
10:55 AM,68.0,57.2,68,30.06,-9999.0,NE,11.5,-,N/A,,Clear,40,2013-08-26 08:55:00
11:00 AM,68,56,56,30.08,25,NE,13.4,,,,Scattered Clouds,50,2013-08-26 09:00:00
11:25 AM,69.8,57.2,64,30.06,-9999.0,NE,12.7,-,N/A,,Clear,50,2013-08-26 09:25:00
11:55 AM,69.8,57.2,64,30.06,-9999.0,ENE,12.7,-,N/A,,Clear,60,2013-08-26 09:55:00
12:25 PM,69.8,55.4,60,30.06,-9999.0,NE,15.0,-,N/A,,Clear,50,2013-08-26 10:25:00
12:55 PM,71.6,55.4,57,30.06,-9999.0,ENE,12.7,-,N/A,,Clear,60,2013-08-26 10:55:00
1:25 PM,73.4,53.6,50,30.04,6.2,ENE,16.1,-,N/A,,Partly Cloudy,60,2013-08-26 11:25:00
1:55 PM,73.4,51.8,47,30.04,6.2,NE,16.1,-,N/A,,Partly Cloudy,50,2013-08-26 11:55:00
2:00 PM,73,48,30,30.06,25,NE,17.9,,,,Partly Cloudy,50,2013-08-26 12:00:00
2:25 PM,73.4,48.2,41,30.04,-9999.0,NE,17.3,-,N/A,,Clear,50,2013-08-26 12:25:00
2:55 PM,73.4,46.4,38,30.04,-9999.0,NE,16.1,-,N/A,,Clear,40,2013-08-26 12:55:00
3:25 PM,73.4,48.2,41,30.04,-9999.0,NE,16.1,-,N/A,,Clear,50,2013-08-26 13:25:00
3:55 PM,73.4,48.2,41,30.04,-9999.0,ENE,15.0,-,N/A,,Clear,60,2013-08-26 13:55:00
4:25 PM,73.4,50.0,44,30.04,-9999.0,NE,15.0,-,N/A,,Clear,40,2013-08-26 14:25:00
4:55 PM,73.4,48.2,41,30.04,-9999.0,NE,13.8,-,N/A,,Clear,50,2013-08-26 14:55:00
5:00 PM,73,48,31,30.05,25,NE,13.4,,,,,40,2013-08-26 15:00:00
5:25 PM,73.4,50.0,44,30.04,-9999.0,NE,13.8,-,N/A,,Clear,50,2013-08-26 15:25:00
5:55 PM,73.4,48.2,41,30.04,-9999.0,ENE,15.0,-,N/A,,Clear,60,2013-08-26 15:55:00
6:25 PM,73.4,50.0,44,30.04,-9999.0,NE,12.7,-,N/A,,Clear,40,2013-08-26 16:25:00
6:55 PM,71.6,50.0,46,30.01,-9999.0,NE,12.7,-,N/A,,Clear,40,2013-08-26 16:55:00
7:25 PM,69.8,50.0,49,30.01,-9999.0,NNE,11.5,-,N/A,,Clear,30,2013-08-26 17:25:00
7:55 PM,69.8,50.0,49,30.04,-9999.0,NE,9.2,-,N/A,,Clear,40,2013-08-26 17:55:00
8:00 PM,69,51,42,30.04,25,NE,11.2,,,,Partly Cloudy,40,2013-08-26 18:00:00
8:25 PM,66.2,51.8,60,30.04,-9999.0,NE,6.9,-,N/A,,Clear,40,2013-08-26 18:25:00
8:55 PM,64.4,51.8,64,30.04,-9999.0,NE,5.8,-,N/A,,Clear,40,2013-08-26 18:55:00
9:25 PM,64.4,53.6,68,30.04,-9999.0,NNE,5.8,-,N/A,,Clear,20,2013-08-26 19:25:00
9:55 PM,62.6,55.4,77,30.04,-9999.0,NNE,6.9,-,N/A,,Clear,20,2013-08-26 19:55:00
10:25 PM,62.6,55.4,77,30.04,-9999.0,NNE,6.9,-,N/A,,Clear,30,2013-08-26 20:25:00
10:55 PM,62.6,55.4,77,30.04,-9999.0,NNE,5.8,-,N/A,,Clear,30,2013-08-26 20:55:00
11:00 PM,62,55,71,30.06,25,NNE,6.7,,,,,30,2013-08-26 21:00:00
11:25 PM,62.6,55.4,77,30.04,-9999.0,NNE,6.9,-,N/A,,Clear,30,2013-08-26 21:25:00
11:55 PM,60.8,53.6,77,30.04,-9999.0,NE,6.9,-,N/A,,Clear,40,2013-08-26 21:55:00